Hlavní strana
METAR-TAF:

METAR-TAF

Letiště :

Redstone Arsenal, Alabama, Spojené státy americké

zeměpisná šířka: 34-40-43N, zeměpisná délka: 086-41-05W, výška: 209 m

Aktuální stav počasí

Zpráva byla vytvořena před 20 minutami, v 19:58 UTC
Jihojihovýchodní vítr 13 kt
Teplota 9°C
Vlhkost vzduchu 100%
Tlak 1009 hPa
Viditelnost: 11.3 km
Oblačno až skoro zataženo ve výšce 600 ft
Oblačno až skoro zataženo ve výšce 1500 ft
Zataženo ve výšce 8500 ft
slabý déšť

METAR: KHUA 241958Z 16013KT 7SM -RA BKN006 BKN015 OVC085 09/09 A2980 RMK AO2A RAE42RAB42 PRESFR SLP093 P0004 T00910086

Čas: 14:18 (20:18 UTC)


TAF: chybějící

Stav a předpovědi počasí z více než 4 000 letišť (zprávy METAR a TAF).

Červené a žluté tečky na mapě představují dostupné meteorologické stanice.

Když kurzor umístíte na tečku, zobrazí se název stanice.

Pak kliknutím zobrazíte stav a předpověď počasí.

Chcete-li změnit mapu, kliknutím na zelené tlačítko se znaménkem +mapu přiblížíte, kliknutím na zelené tlačítko se znaménkem – mapu oddálíte a kliknutím na zelené šipky přejdete na sousední mapy.


METAR-TAF: